Time;durP1;ratioP1;P1;durP2;ratioP2;P2;SDS_P1;SDS_P2;PMS_P1;PMS_P2;Temp;Humidity;BMP_temperature;BMP_pressure;BME280_temperature;BME280_humidity;BME280_pressure;Samples;Min_cycle;Max_cycle;Signal;HPM_P1;HPM_P2
2021/04/15 00:01:59;;;;;;;;;;;2.70;99.90;;;;;;5070849;28;19912;-49
2021/04/15 00:04:25;;;;;;;;;;;2.70;99.90;;;;;;5064776;28;20030;-48
2021/04/15 00:06:51;;;;;;;;;;;2.60;99.90;;;;;;5068134;28;19928;-49
2021/04/15 00:09:18;;;;;;;;;;;2.70;99.90;;;;;;5071313;28;19954;-48
2021/04/15 00:11:44;;;;;;;;;;;2.70;99.90;;;;;;5071879;28;19920;-48
2021/04/15 00:14:10;;;;;;;;;;;2.70;99.90;;;;;;5066317;28;20288;-47
2021/04/15 00:16:36;;;;;;;;;;;2.70;99.90;;;;;;5070231;28;20369;-48
2021/04/15 00:19:02;;;;;;;;;;;2.70;99.90;;;;;;5068085;28;19965;-47
2021/04/15 00:21:28;;;;;;;;;;;2.70;99.90;;;;;;5067626;28;19916;-47
2021/04/15 00:23:56;;;;;;;;;;;2.70;99.90;;;;;;5068858;28;19908;-49
2021/04/15 00:26:22;;;;;;;;;;;2.70;99.90;;;;;;5065896;28;19924;-49
2021/04/15 00:28:49;;;;;;;;;;;2.70;99.90;;;;;;5070011;28;20352;-49
2021/04/15 00:31:15;;;;;;;;;;;2.70;99.90;;;;;;5068516;28;19908;-48
2021/04/15 00:33:41;;;;;;;;;;;2.70;99.90;;;;;;5065160;28;20281;-48
2021/04/15 00:36:07;;;;;;;;;;;2.70;99.90;;;;;;5068736;28;19955;-50
2021/04/15 00:38:33;;;;;;;;;;;2.70;99.90;;;;;;5061324;28;19912;-49
2021/04/15 00:40:59;;;;;;;;;;;2.60;99.90;;;;;;5068400;28;19991;-48
2021/04/15 00:43:26;;;;;;;;;;;2.60;99.90;;;;;;5061333;28;19920;-48
2021/04/15 00:45:52;;;;;;;;;;;2.60;99.90;;;;;;5070162;28;19931;-49
2021/04/15 00:48:30;;;;;;;;;;;2.70;99.90;;;;;;5070587;28;19913;-50
2021/04/15 00:51:12;;;;;;;;;;;2.70;99.90;;;;;;5071686;28;20276;-49
2021/04/15 00:53:39;;;;;;;;;;;2.60;99.90;;;;;;5074520;28;20268;-49
2021/04/15 00:56:05;;;;;;;;;;;2.70;99.90;;;;;;5071422;28;19908;-49
2021/04/15 00:58:31;;;;;;;;;;;2.60;99.90;;;;;;5071539;28;20035;-51
2021/04/15 01:00:58;;;;;;;;;;;2.60;99.90;;;;;;5071805;28;19934;-48
2021/04/15 01:03:24;;;;;;;;;;;2.60;99.90;;;;;;5065542;28;19919;-49
2021/04/15 01:05:50;;;;;;;;;;;2.60;99.90;;;;;;5073584;28;20376;-49
2021/04/15 01:08:16;;;;;;;;;;;2.60;99.90;;;;;;5073367;28;19924;-48
2021/04/15 01:10:43;;;;;;;;;;;2.60;99.90;;;;;;5072264;28;19908;-48
2021/04/15 01:13:09;;;;;;;;;;;2.60;99.90;;;;;;5069942;28;19909;-51
2021/04/15 01:15:35;;;;;;;;;;;2.60;99.90;;;;;;5069911;28;19909;-49
2021/04/15 01:18:03;;;;;;;;;;;2.50;99.90;;;;;;5074552;28;19919;-52
2021/04/15 01:20:48;;;;;;;;;;;2.50;99.90;;;;;;5064287;28;19923;-52
2021/04/15 01:23:16;;;;;;;;;;;2.50;99.90;;;;;;5073274;28;19908;-53
2021/04/15 01:25:42;;;;;;;;;;;2.50;99.90;;;;;;5071324;28;19917;-52
2021/04/15 01:28:14;;;;;;;;;;;2.50;99.90;;;;;;5061789;28;19920;-52
2021/04/15 01:30:41;;;;;;;;;;;2.50;99.90;;;;;;5071466;28;19920;-50
2021/04/15 01:33:14;;;;;;;;;;;2.50;99.90;;;;;;5074945;28;19931;-52
2021/04/15 01:35:50;;;;;;;;;;;2.50;99.90;;;;;;5071095;28;19919;-52
2021/04/15 01:38:19;;;;;;;;;;;2.40;99.90;;;;;;5073161;28;19913;-51
2021/04/15 01:40:49;;;;;;;;;;;2.40;99.90;;;;;;5074529;28;19983;-52
2021/04/15 01:43:32;;;;;;;;;;;2.40;99.90;;;;;;5086038;28;19909;-53
2021/04/15 01:45:58;;;;;;;;;;;2.30;99.90;;;;;;5071441;28;19990;-51
2021/04/15 01:48:28;;;;;;;;;;;2.30;99.90;;;;;;5068904;28;19908;-52
2021/04/15 01:50:55;;;;;;;;;;;2.20;99.90;;;;;;5071894;28;19916;-52
2021/04/15 01:53:22;;;;;;;;;;;2.30;99.90;;;;;;5068412;28;19912;-52
2021/04/15 01:55:49;;;;;;;;;;;2.30;99.90;;;;;;5073016;28;20368;-52
2021/04/15 01:58:20;;;;;;;;;;;2.30;99.90;;;;;;5063700;28;19912;-52
2021/04/15 02:00:47;;;;;;;;;;;2.30;99.90;;;;;;5069403;28;19912;-51
2021/04/15 02:03:15;;;;;;;;;;;2.30;99.90;;;;;;5070219;28;19909;-52
2021/04/15 02:05:41;;;;;;;;;;;2.30;99.90;;;;;;5072622;28;19917;-51
2021/04/15 02:08:19;;;;;;;;;;;2.30;99.90;;;;;;5055966;28;19915;-53
2021/04/15 02:10:58;;;;;;;;;;;2.20;99.90;;;;;;5068992;28;20365;-48
2021/04/15 02:13:25;;;;;;;;;;;2.20;99.90;;;;;;5069430;28;19916;-49
2021/04/15 02:15:52;;;;;;;;;;;2.20;99.90;;;;;;5071921;28;19912;-47
2021/04/15 02:18:24;;;;;;;;;;;2.20;99.90;;;;;;5070852;28;19913;-49
2021/04/15 02:20:50;;;;;;;;;;;2.20;99.90;;;;;;5071620;28;19909;-47
2021/04/15 02:23:16;;;;;;;;;;;2.20;99.90;;;;;;5071810;28;19937;-49
2021/04/15 02:25:43;;;;;;;;;;;2.20;99.90;;;;;;5072149;28;19922;-47
2021/04/15 02:28:12;;;;;;;;;;;2.20;99.90;;;;;;5069726;28;19927;-50
2021/04/15 02:30:56;;;;;;;;;;;2.10;99.90;;;;;;5069486;28;19908;-50
2021/04/15 02:33:31;;;;;;;;;;;2.10;99.90;;;;;;5064269;28;19923;-47
2021/04/15 02:36:01;;;;;;;;;;;2.20;99.90;;;;;;5073915;28;20277;-49
2021/04/15 02:38:45;;;;;;;;;;;2.20;99.90;;;;;;5073300;28;20300;-47
2021/04/15 02:41:13;;;;;;;;;;;2.20;99.90;;;;;;5070692;28;19916;-49
2021/04/15 02:43:40;;;;;;;;;;;2.20;99.90;;;;;;5084031;28;19916;-47
2021/04/15 02:46:09;;;;;;;;;;;2.10;99.90;;;;;;5070308;28;19916;-47
2021/04/15 02:48:35;;;;;;;;;;;2.10;99.90;;;;;;5071537;28;19912;-51
2021/04/15 02:51:02;;;;;;;;;;;2.10;99.90;;;;;;5072295;28;20369;-49
2021/04/15 02:53:32;;;;;;;;;;;2.20;99.90;;;;;;5072139;28;19908;-47
2021/04/15 02:56:04;;;;;;;;;;;2.20;99.90;;;;;;5061529;28;19909;-48
2021/04/15 02:58:32;;;;;;;;;;;2.20;99.90;;;;;;5062020;28;20504;-49
2021/04/15 03:00:58;;;;;;;;;;;2.30;99.90;;;;;;5065059;28;20262;-48
2021/04/15 03:03:26;;;;;;;;;;;2.20;99.90;;;;;;5067300;28;19915;-51
2021/04/15 03:05:58;;;;;;;;;;;2.20;99.90;;;;;;5070648;28;19916;-49
2021/04/15 03:08:24;;;;;;;;;;;2.20;99.90;;;;;;5071975;28;20384;-48
2021/04/15 03:10:52;;;;;;;;;;;2.10;99.90;;;;;;5067449;28;19909;-49
2021/04/15 03:13:22;;;;;;;;;;;2.10;99.90;;;;;;5066504;28;19920;-49
2021/04/15 03:15:49;;;;;;;;;;;2.10;99.90;;;;;;5066851;28;19909;-48
2021/04/15 03:18:21;;;;;;;;;;;2.10;99.90;;;;;;5060444;28;19908;-50
2021/04/15 03:20:49;;;;;;;;;;;2.10;99.90;;;;;;5063476;28;19908;-48
2021/04/15 03:23:15;;;;;;;;;;;2.10;99.90;;;;;;5071354;28;19915;-48
2021/04/15 03:25:41;;;;;;;;;;;2.00;99.90;;;;;;5068045;28;19916;-49
2021/04/15 03:28:06;;;;;;;;;;;2.00;99.90;;;;;;5059035;28;19916;-48
2021/04/15 03:30:37;;;;;;;;;;;1.90;99.90;;;;;;5064779;28;19908;-48
2021/04/15 03:33:22;;;;;;;;;;;1.90;99.90;;;;;;5060100;28;20379;-47
2021/04/15 03:35:48;;;;;;;;;;;1.90;99.90;;;;;;5062563;28;20022;-50
2021/04/15 03:38:16;;;;;;;;;;;1.90;99.90;;;;;;5063503;28;19916;-52
2021/04/15 03:40:43;;;;;;;;;;;2.00;99.90;;;;;;5062273;28;19916;-49
2021/04/15 03:43:14;;;;;;;;;;;1.90;99.90;;;;;;5063894;28;19909;-48
2021/04/15 03:45:59;;;;;;;;;;;1.90;99.90;;;;;;5062324;28;19931;-48
2021/04/15 03:48:25;;;;;;;;;;;1.90;99.90;;;;;;5060208;28;19932;-47
2021/04/15 03:51:00;;;;;;;;;;;1.80;99.90;;;;;;5063338;28;19919;-50
2021/04/15 03:53:30;;;;;;;;;;;1.80;99.90;;;;;;5067383;28;19909;-48
2021/04/15 03:55:57;;;;;;;;;;;1.70;99.90;;;;;;5064729;28;19908;-47
2021/04/15 03:58:25;;;;;;;;;;;1.60;99.90;;;;;;5068957;28;19912;-47
2021/04/15 04:01:10;;;;;;;;;;;1.60;99.90;;;;;;5082317;28;20404;-47
2021/04/15 04:03:37;;;;;;;;;;;1.50;99.90;;;;;;5067290;28;19908;-48
2021/04/15 04:06:04;;;;;;;;;;;1.50;99.90;;;;;;5073293;28;19909;-49
2021/04/15 04:08:42;;;;;;;;;;;1.50;99.90;;;;;;5063389;28;20171;-50
2021/04/15 04:11:08;;;;;;;;;;;1.40;99.90;;;;;;5066083;28;20273;-46
2021/04/15 04:13:38;;;;;;;2.90;1.00;;;1.40;99.90;;;;;;5067505;28;19904;-50
2021/04/15 04:16:31;;;;;;;2.40;0.80;;;1.40;99.90;;;;;;5077725;28;20182;-48
2021/04/15 04:19:07;;;;;;;4.20;1.20;;;1.40;99.90;;;;;;5084612;28;20534;-50
2021/04/15 04:22:11;;;;;;;3.40;1.40;;;1.30;99.90;;;;;;5083275;28;20169;-50
2021/04/15 04:24:47;;;;;;;20.58;1.58;;;1.30;99.90;;;;;;5066200;28;20182;-52
2021/04/15 04:27:27;;;;;;;10.02;1.80;;;1.30;99.90;;;;;;5071639;28;20192;-48
2021/04/15 04:29:53;;;;;;;3.88;1.10;;;1.40;99.90;;;;;;5086918;28;20178;-49
2021/04/15 04:32:22;;;;;;;7.03;1.50;;;1.40;99.90;;;;;;5067549;28;20205;-50
2021/04/15 04:34:57;;;;;;;5.63;1.50;;;1.40;99.90;;;;;;5084436;28;20190;-50
2021/04/15 04:37:44;;;;;;;6.63;1.48;;;1.50;99.90;;;;;;5071228;28;20165;-48
2021/04/15 04:40:20;;;;;;;6.68;1.58;;;1.50;99.90;;;;;;5083943;28;20182;-50
2021/04/15 04:42:52;;;;;;;7.15;1.50;;;1.50;99.90;;;;;;5087486;28;20169;-48
2021/04/15 04:45:18;;;;;;;4.15;1.30;;;1.50;99.90;;;;;;5087462;28;20602;-48
2021/04/15 04:47:54;;;;;;;3.03;1.35;;;1.60;99.90;;;;;;5087303;28;20546;-47
2021/04/15 04:50:23;;;;;;;12.80;2.78;;;1.60;99.90;;;;;;5072429;28;20173;-51
2021/04/15 04:52:56;;;;;;;8.82;1.30;;;1.60;99.90;;;;;;5072297;28;20186;-49
2021/04/15 04:55:26;;;;;;;7.55;1.35;;;1.70;99.90;;;;;;5070878;28;20154;-48
2021/04/15 04:57:52;;;;;;;11.55;2.42;;;1.70;99.90;;;;;;5071406;28;20170;-49
2021/04/15 05:00:20;;;;;;;7.00;1.55;;;1.80;99.90;;;;;;5078126;28;20638;-48
2021/04/15 05:02:56;;;;;;;10.15;1.40;;;1.80;99.90;;;;;;5075853;28;20170;-48
2021/04/15 05:05:24;;;;;;;8.63;1.70;;;1.90;99.90;;;;;;5085001;28;20176;-48
2021/04/15 05:07:58;;;;;;;18.45;1.85;;;1.90;99.90;;;;;;5090832;28;20197;-50
2021/04/15 05:10:25;;;;;;;18.17;1.73;;;2.00;99.90;;;;;;5091685;28;20613;-47
2021/04/15 05:13:00;;;;;;;10.05;1.98;;;2.10;99.90;;;;;;5085993;28;20553;-49
2021/04/15 05:15:26;;;;;;;20.95;2.20;;;2.20;99.90;;;;;;5071620;28;20154;-47
2021/04/15 05:17:52;;;;;;;19.58;2.47;;;2.30;99.90;;;;;;5071901;28;20185;-50
2021/04/15 05:20:20;;;;;;;8.38;1.48;;;2.40;99.90;;;;;;5072113;28;20170;-47
2021/04/15 05:22:53;;;;;;;21.25;2.22;;;2.50;99.90;;;;;;5070619;28;20174;-47
2021/04/15 05:25:21;;;;;;;15.43;1.83;;;2.50;99.90;;;;;;5071953;28;20527;-49
2021/04/15 05:27:48;;;;;;;6.93;1.10;;;2.60;99.90;;;;;;5054259;28;20668;-48
2021/04/15 05:30:40;;;;;;;9.05;1.50;;;2.70;99.90;;;;;;5054220;28;20182;-49
2021/04/15 05:33:08;;;;;;;13.23;1.90;;;2.80;99.90;;;;;;5071442;28;20217;-48
2021/04/15 05:35:39;;;;;;;22.00;1.30;;;2.90;99.90;;;;;;5075464;28;20162;-51
2021/04/15 05:38:06;;;;;;;5.93;1.02;;;3.00;99.90;;;;;;5057813;28;20158;-48
2021/04/15 05:40:33;;;;;;;1.95;1.20;;;3.10;99.90;;;;;;5074262;28;20180;-48
2021/04/15 05:43:27;;;;;;;4.95;1.15;;;3.20;99.90;;;;;;5074207;28;20184;-48
2021/04/15 05:46:05;;;;;;;5.70;1.40;;;3.30;99.90;;;;;;5069769;28;20170;-48
2021/04/15 05:48:32;;;;;;;2.15;0.80;;;3.30;99.90;;;;;;5073826;28;20585;-49
2021/04/15 05:50:58;;;;;;;2.55;1.00;;;3.40;99.90;;;;;;5083139;28;20167;-48
2021/04/15 05:53:26;;;;;;;19.13;1.35;;;3.50;99.90;;;;;;5082660;28;20198;-49
2021/04/15 05:55:56;;;;;;;1.70;0.90;;;3.60;99.90;;;;;;5081990;28;20181;-49
2021/04/15 05:58:25;;;;;;;4.43;1.00;;;3.70;99.90;;;;;;5088740;28;20193;-49
2021/04/15 06:00:53;;;;;;;;;;;3.80;99.90;;;;;;5068187;28;20174;-49
2021/04/15 06:03:29;;;;;;;7.53;1.25;;;3.90;99.90;;;;;;5049909;28;19908;-47
2021/04/15 06:06:16;;;;;;;2.78;1.13;;;4.10;99.90;;;;;;5065728;28;20198;-49
2021/04/15 06:08:43;;;;;;;50.90;2.70;;;4.20;99.90;;;;;;5089253;28;20170;-49
2021/04/15 06:11:24;;;;;;;4.30;0.80;;;4.30;99.90;;;;;;5049196;28;20643;-48
2021/04/15 06:13:56;;;;;;;4.40;1.52;;;4.40;99.90;;;;;;5055880;28;20178;-48
2021/04/15 06:16:34;;;;;;;2.08;0.80;;;4.50;99.90;;;;;;5056986;28;20166;-48
2021/04/15 06:19:10;;;;;;;3.15;1.30;;;4.70;99.90;;;;;;5047769;28;20194;-47
2021/04/15 06:21:40;;;;;;;1.83;0.88;;;4.80;99.90;;;;;;5060652;28;20574;-48
2021/04/15 06:24:15;;;;;;;5.20;0.80;;;4.90;99.90;;;;;;5069115;28;20171;-49
2021/04/15 06:26:49;;;;;;;2.67;1.03;;;5.00;99.90;;;;;;5067256;28;20205;-49
2021/04/15 06:29:41;;;;;;;2.05;0.60;;;5.10;99.90;;;;;;5050354;28;20182;-49
2021/04/15 06:32:18;;;;;;;3.90;1.00;;;5.20;99.90;;;;;;5069763;28;20201;-49
2021/04/15 06:34:44;;;;;;;1.95;1.00;;;5.30;99.90;;;;;;5065056;28;20177;-49
2021/04/15 06:37:14;;;;;;;3.58;1.10;;;5.50;99.90;;;;;;5077889;28;20174;-48
2021/04/15 06:39:54;;;;;;;6.35;1.10;;;5.60;99.90;;;;;;5069047;28;20170;-49
2021/04/15 06:42:39;;;;;;;2.33;0.80;;;5.70;99.90;;;;;;5069924;28;20193;-49
2021/04/15 06:45:29;;;;;;;4.68;0.80;;;5.80;99.90;;;;;;5061681;28;20185;-50
2021/04/15 06:48:11;;;;;;;4.20;0.63;;;5.80;99.90;;;;;;5059472;28;20544;-49
2021/04/15 06:51:19;;;;;;;9.88;1.23;;;5.90;99.90;;;;;;5072710;28;20213;-50
2021/04/15 06:54:07;;;;;;;3.35;0.68;;;6.00;99.90;;;;;;5085774;28;20193;-48
2021/04/15 06:56:46;;;;;;;3.55;0.70;;;6.20;99.90;;;;;;5061949;28;20166;-49
2021/04/15 06:59:34;;;;;;;5.75;0.75;;;6.20;99.90;;;;;;5060812;28;20186;-50
2021/04/15 07:02:03;;;;;;;18.73;1.55;;;6.40;99.90;;;;;;5055080;28;20536;-52
2021/04/15 07:04:47;;;;;;;6.07;1.23;;;6.60;99.90;;;;;;5057983;28;20171;-50
2021/04/15 07:07:26;;;;;;;13.70;0.63;;;6.70;99.90;;;;;;5067867;28;20205;-48
2021/04/15 07:10:08;;;;;;;2.05;0.50;;;6.80;99.90;;;;;;5086953;28;20166;-48
2021/04/15 07:12:40;;;;;;;6.80;0.80;;;7.00;99.90;;;;;;5070913;28;20505;-47
2021/04/15 07:15:27;;;;;;;5.13;0.90;;;7.10;99.90;;;;;;5053952;28;20197;-50
2021/04/15 07:18:30;;;;;;;1.80;0.60;;;7.20;99.90;;;;;;5083703;28;20642;-47
2021/04/15 07:21:18;;;;;;;7.65;0.68;;;7.20;99.90;;;;;;5067521;28;20173;-49
2021/04/15 07:24:21;;;;;;;2.58;0.85;;;7.20;99.90;;;;;;5066529;28;20753;-50
2021/04/15 07:27:21;;;;;;;30.35;2.33;;;7.30;99.90;;;;;;5068909;28;20688;-49
2021/04/15 07:30:17;;;;;;;3.08;0.52;;;7.40;99.90;;;;;;5066167;28;20536;-48
2021/04/15 07:33:02;;;;;;;2.22;0.80;;;7.70;99.90;;;;;;5068549;28;20221;-49
2021/04/15 07:35:31;;;;;;;;;;;7.70;99.90;;;;;;5069810;28;20095;-47
2021/04/15 07:38:12;;;;;;;;;;;7.90;99.90;;;;;;5066227;28;19917;-49
2021/04/15 07:40:57;;;;;;;;;;;8.10;99.90;;;;;;5063899;28;20345;-49
2021/04/15 07:43:29;;;;;;;;;;;8.20;99.90;;;;;;5064285;28;20323;-50
2021/04/15 07:46:04;;;;;;;;;;;8.40;99.90;;;;;;5060920;28;20284;-50
2021/04/15 07:48:53;;;;;;;;;;;8.50;99.90;;;;;;5064047;28;19928;-49
2021/04/15 07:51:19;;;;;;;;;;;8.70;99.90;;;;;;5069066;28;19931;-50
2021/04/15 07:54:03;;;;;;;;;;;8.80;99.90;;;;;;5053026;28;19908;-49
2021/04/15 07:57:02;;;;;;;;;;;9.00;99.90;;;;;;5067243;28;20262;-49
2021/04/15 07:59:45;;;;;;;;;;;9.20;99.90;;;;;;5066798;28;19919;-50
2021/04/15 08:02:29;;;;;;;;;;;9.50;99.90;;;;;;5064480;28;19908;-49
2021/04/15 08:05:31;;;;;;;;;;;9.70;99.90;;;;;;5064788;28;19908;-51
2021/04/15 08:08:17;;;;;;;;;;;10.00;99.90;;;;;;5065349;28;19912;-59
2021/04/15 08:11:04;;;;;;;;;;;10.40;99.90;;;;;;5028743;28;20372;-63
2021/04/15 08:13:43;;;;;;;;;;;10.80;99.90;;;;;;5071244;28;19908;-52
2021/04/15 08:16:09;;;;;;;;;;;11.40;99.90;;;;;;5064432;28;19908;-50
2021/04/15 08:18:42;;;;;;;;;;;12.20;99.80;;;;;;5071814;28;20383;-51
2021/04/15 08:21:23;;;;;;;;;;;12.70;99.90;;;;;;5051348;28;19971;-48
2021/04/15 08:23:49;;;;;;;;;;;13.50;95.80;;;;;;5065730;28;19908;-49
2021/04/15 08:26:38;;;;;;;;;;;13.70;94.40;;;;;;5069474;28;19935;-49
2021/04/15 08:29:07;;;;;;;;;;;14.20;93.60;;;;;;5066569;28;20368;-49
2021/04/15 08:31:47;;;;;;;;;;;14.30;92.70;;;;;;5065274;28;19908;-50
2021/04/15 08:34:13;;;;;;;;;;;14.70;90.50;;;;;;5070474;28;19912;-52
2021/04/15 08:36:51;;;;;;;;;;;15.60;90.10;;;;;;5068555;28;20379;-49
2021/04/15 08:39:26;;;;;;;;;;;15.30;84.80;;;;;;5067286;28;19916;-49
2021/04/15 08:41:59;;;;;;;;;;;15.60;84.60;;;;;;5064158;28;19919;-50
2021/04/15 08:44:40;;;;;;;;;;;15.80;83.20;;;;;;5072278;28;20334;-48
2021/04/15 08:47:15;;;;;;;;;;;16.30;78.80;;;;;;5066094;28;19920;-53
2021/04/15 08:49:53;;;;;;;;;;;15.60;76.90;;;;;;5063406;28;19908;-48
2021/04/15 08:52:34;;;;;;;;;;;16.40;74.40;;;;;;5060099;28;19923;-49
2021/04/15 08:55:07;;;;;;;;;;;16.00;75.50;;;;;;5066760;28;20383;-50
2021/04/15 08:57:32;;;;;;;;;;;16.30;73.60;;;;;;5067532;28;19920;-50
2021/04/15 09:00:03;;;;;;;;;;;16.30;71.50;;;;;;5068655;28;20357;-51
2021/04/15 09:02:32;;;;;;;;;;;16.50;71.10;;;;;;5065845;28;19916;-50
2021/04/15 09:04:58;;;;;;;;;;;16.30;71.20;;;;;;5068298;28;19908;-51
2021/04/15 09:07:29;;;;;;;;;;;16.50;68.00;;;;;;5071172;28;19939;-50
2021/04/15 09:10:16;;;;;;;;;;;17.10;67.00;;;;;;5073501;28;19983;-49
2021/04/15 09:12:49;;;;;;;;;;;17.10;62.70;;;;;;5073397;28;20365;-49
2021/04/15 09:15:34;;;;;;;;;;;17.50;65.40;;;;;;5072737;28;19909;-49
2021/04/15 09:18:05;;;;;;;;;;;17.80;63.40;;;;;;5074483;28;19923;-50
2021/04/15 09:20:34;;;;;;;;;;;18.00;60.70;;;;;;5074229;28;19909;-49
2021/04/15 09:23:19;;;;;;;;;;;17.30;58.80;;;;;;5072393;28;19909;-50
2021/04/15 09:25:47;;;;;;;;;;;18.00;56.60;;;;;;5075053;28;19908;-48
2021/04/15 09:28:19;;;;;;;;;;;18.20;57.30;;;;;;5061507;28;19928;-50
2021/04/15 09:31:05;;;;;;;;;;;18.30;57.80;;;;;;5068460;28;19915;-50
2021/04/15 09:33:37;;;;;;;;;;;18.70;56.70;;;;;;5063831;28;19921;-49
2021/04/15 09:36:09;;;;;;;;;;;18.30;55.90;;;;;;5055207;28;20266;-49
2021/04/15 09:38:34;;;;;;;;;;;18.70;54.90;;;;;;5071678;28;20280;-49
2021/04/15 09:41:17;;;;;;;;;;;19.20;54.00;;;;;;5075266;28;19916;-51
2021/04/15 09:43:43;;;;;;;;;;;19.60;53.00;;;;;;5073615;28;19915;-50
2021/04/15 09:46:09;;;;;;;;;;;19.70;52.50;;;;;;5072996;28;19908;-50
2021/04/15 09:48:39;;;;;;;;;;;19.90;51.60;;;;;;5064075;28;19925;-50
2021/04/15 09:51:15;;;;;;;;;;;19.70;51.70;;;;;;5069627;28;20357;-54
2021/04/15 09:53:48;;;;;;;;;;;20.20;50.10;;;;;;5071814;28;19908;-48
2021/04/15 09:56:33;;;;;;;;;;;20.50;47.70;;;;;;5061655;28;19941;-50
2021/04/15 09:59:02;;;;;;;;;;;20.30;49.60;;;;;;5059945;28;19913;-53
2021/04/15 10:01:30;;;;;;;;;;;20.20;47.60;;;;;;5068982;28;19916;-49
2021/04/15 10:04:04;;;;;;;;;;;19.70;46.50;;;;;;5069590;28;20305;-51
2021/04/15 10:06:30;;;;;;;;;;;20.70;46.20;;;;;;5069199;28;19909;-50
2021/04/15 10:09:00;;;;;;;;;;;20.40;46.10;;;;;;5063985;28;19919;-50
2021/04/15 10:11:35;;;;;;;;;;;21.50;45.50;;;;;;5057548;28;19912;-51
2021/04/15 10:14:12;;;;;;;;;;;20.50;45.60;;;;;;5055114;28;19909;-50
2021/04/15 10:16:49;;;;;;;;;;;20.50;44.40;;;;;;5056760;28;20285;-51
2021/04/15 10:19:32;;;;;;;;;;;20.10;43.00;;;;;;5062450;28;19909;-51
2021/04/15 10:22:08;;;;;;;;;;;21.00;43.60;;;;;;5059502;28;19908;-51
2021/04/15 10:24:39;;;;;;;;;;;20.90;43.40;;;;;;5072982;28;19911;-50
2021/04/15 10:27:17;;;;;;;;;;;19.80;41.00;;;;;;5057807;28;19912;-51
2021/04/15 10:29:55;;;;;;;;;;;20.50;43.00;;;;;;5057849;28;19920;-50
2021/04/15 10:32:27;;;;;;;;;;;20.90;41.70;;;;;;5058628;28;19917;-49
2021/04/15 10:35:01;;;;;;;;;;;21.10;38.50;;;;;;5061346;28;19923;-51
2021/04/15 10:37:42;;;;;;;;;;;21.00;42.10;;;;;;5062252;28;19909;-49
2021/04/15 10:40:08;;;;;;;;;;;20.30;38.90;;;;;;5061411;28;19916;-51
2021/04/15 10:42:53;;;;;;;;;;;20.00;40.00;;;;;;5056923;28;19909;-51
2021/04/15 10:45:37;;;;;;;;;;;18.20;36.00;;;;;;5068874;28;20387;-53
2021/04/15 10:48:06;;;;;;;;;;;18.10;38.60;;;;;;5069996;28;19924;-52
2021/04/15 10:50:51;;;;;;;;;;;18.70;40.30;;;;;;5054587;28;19909;-51
2021/04/15 10:53:20;;;;;;;;;;;19.60;39.10;;;;;;5062847;28;19931;-51
2021/04/15 10:55:47;;;;;;;;;;;20.20;38.80;;;;;;5062296;28;19909;-51
2021/04/15 10:58:22;;;;;;;;;;;20.50;40.90;;;;;;5068434;28;19929;-50
2021/04/15 11:00:48;;;;;;;;;;;20.50;38.60;;;;;;5055274;28;19909;-51
2021/04/15 11:03:18;;;;;;;;;;;20.70;38.00;;;;;;5063529;28;19955;-50
2021/04/15 11:05:47;;;;;;;;;;;21.80;37.90;;;;;;5063609;28;20608;-52
2021/04/15 11:08:20;;;;;;;;;;;21.80;36.30;;;;;;5064446;28;19908;-49
2021/04/15 11:10:46;;;;;;;;;;;21.60;36.90;;;;;;5062700;28;19930;-52
2021/04/15 11:13:12;;;;;;;;;;;20.60;37.70;;;;;;5059346;28;19934;-51
2021/04/15 11:15:40;;;;;;;;;;;21.30;37.50;;;;;;5057843;28;19908;-50
2021/04/15 11:18:07;;;;;;;;;;;22.50;38.70;;;;;;5062030;28;19916;-49
2021/04/15 11:20:35;;;;;;;;;;;21.40;36.00;;;;;;5061022;28;19916;-53
2021/04/15 11:23:04;;;;;;;;;;;23.00;37.00;;;;;;5058553;28;19916;-53
2021/04/15 11:25:40;;;;;;;;;;;21.10;36.50;;;;;;5060565;28;19919;-51
2021/04/15 11:28:15;;;;;;;;;;;21.70;36.50;;;;;;5058178;28;19928;-52
2021/04/15 11:30:45;;;;;;;;;;;20.90;35.00;;;;;;5059509;28;19909;-50
2021/04/15 11:33:12;;;;;;;;;;;19.20;35.30;;;;;;5057934;28;19917;-51
2021/04/15 11:35:39;;;;;;;;;;;20.60;38.10;;;;;;5078116;28;20384;-53
2021/04/15 11:38:07;;;;;;;;;;;21.00;36.80;;;;;;5059678;28;20270;-53
2021/04/15 11:40:36;;;;;;;;;;;21.40;35.60;;;;;;5059642;28;19994;-51
2021/04/15 11:43:15;;;;;;;;;;;21.40;37.30;;;;;;5063551;28;19919;-51
2021/04/15 11:45:41;;;;;;;;;;;21.40;35.60;;;;;;5071529;28;19915;-53
2021/04/15 11:48:16;;;;;;;;;;;21.50;37.10;;;;;;5062751;28;20376;-51
2021/04/15 11:50:42;;;;;;;;;;;21.20;36.50;;;;;;5059258;28;19913;-53
2021/04/15 11:53:27;;;;;;;;;;;23.40;38.20;;;;;;5058586;28;19909;-51
2021/04/15 11:56:09;;;;;;;;;;;23.80;36.30;;;;;;5058535;28;19912;-49
2021/04/15 11:58:35;;;;;;;;;;;22.20;35.00;;;;;;5059086;28;19928;-49
2021/04/15 12:01:01;;;;;;;;;;;20.50;35.10;;;;;;5058540;28;20002;-52
2021/04/15 12:03:33;;;;;;;;;;;20.00;38.20;;;;;;5055331;28;20312;-51
2021/04/15 12:06:08;;;;;;;;;;;20.00;38.50;;;;;;5070808;28;19920;-50
2021/04/15 12:08:37;;;;;;;;;;;20.50;37.30;;;;;;5055563;28;19915;-50
2021/04/15 12:11:07;;;;;;;;;;;20.30;35.80;;;;;;5059583;28;19936;-52
2021/04/15 12:13:33;;;;;;;;;;;20.00;38.40;;;;;;5058154;28;19920;-50
2021/04/15 12:16:05;;;;;;;;;;;19.40;37.70;;;;;;5062794;28;19915;-49
2021/04/15 12:18:42;;;;;;;;;;;17.60;37.60;;;;;;5060390;28;19917;-49
2021/04/15 12:21:19;;;;;;;;;;;16.40;38.60;;;;;;5061531;28;19908;-48
2021/04/15 12:23:48;;;;;;;;;;;15.80;40.20;;;;;;5061822;28;19934;-51
2021/04/15 12:26:19;;;;;;;;;;;15.90;42.30;;;;;;5069516;28;19908;-50
2021/04/15 12:28:57;;;;;;;;;;;16.90;42.20;;;;;;5059273;28;19917;-52
2021/04/15 12:31:27;;;;;;;;;;;17.20;41.00;;;;;;5061651;28;19913;-53
2021/04/15 12:34:05;;;;;;;;;;;17.40;40.00;;;;;;5077636;28;19920;-53
2021/04/15 12:36:31;;;;;;;;;;;18.20;41.10;;;;;;5075668;28;19916;-51
2021/04/15 12:38:58;;;;;;;;;;;17.10;40.10;;;;;;5059635;28;19916;-53
2021/04/15 12:41:24;;;;;;;;;;;16.90;41.40;;;;;;5061949;28;20383;-50
2021/04/15 12:44:02;;;;;;;;;;;16.00;41.20;;;;;;5057924;28;19912;-50
2021/04/15 12:46:28;;;;;;;;;;;15.40;42.80;;;;;;5057407;28;19916;-49
2021/04/15 12:48:55;;;;;;;;;;;14.60;43.70;;;;;;5060064;28;19917;-49
2021/04/15 12:51:24;;;;;;;;;;;14.10;44.40;;;;;;5067000;28;19912;-48
2021/04/15 12:53:50;;;;;;;;;;;13.80;44.40;;;;;;5061005;28;19915;-50
2021/04/15 12:56:20;;;;;;;;;;;15.20;43.80;;;;;;5057858;28;19908;-49
2021/04/15 12:58:46;;;;;;;;;;;16.00;43.60;;;;;;5058227;28;19927;-53
2021/04/15 13:01:12;;;;;;;;;;;17.20;42.20;;;;;;5058685;28;19909;-49
2021/04/15 13:03:38;;;;;;;;;;;16.90;42.70;;;;;;5057133;28;19909;-49
2021/04/15 13:06:09;;;;;;;;;;;16.80;41.40;;;;;;5055450;28;19908;-53
2021/04/15 13:08:37;;;;;;;;;;;16.30;42.10;;;;;;5054052;28;20357;-47
2021/04/15 13:11:06;;;;;;;;;;;15.40;41.60;;;;;;5070539;28;19971;-50
2021/04/15 13:13:42;;;;;;;;;;;14.70;43.50;;;;;;5062443;28;20285;-50
2021/04/15 13:16:27;;;;;;;;;;;15.10;46.80;;;;;;5051585;28;19908;-49
2021/04/15 13:18:53;;;;;;;;;;;15.90;46.60;;;;;;5061031;28;19928;-59
2021/04/15 13:21:32;;;;;;;;;;;16.70;43.30;;;;;;5054710;28;20332;-49
2021/04/15 13:23:58;;;;;;;;;;;17.00;42.50;;;;;;5055537;28;19915;-50
2021/04/15 13:26:33;;;;;;;;;;;16.80;43.60;;;;;;5058234;28;19913;-49
2021/04/15 13:29:01;;;;;;;;;;;17.60;41.40;;;;;;5052272;28;19912;-52
2021/04/15 13:31:43;;;;;;;;;;;17.70;41.10;;;;;;5067053;28;19908;-49
2021/04/15 13:34:17;;;;;;;;;;;17.90;42.20;;;;;;5061364;28;19941;-50
2021/04/15 13:36:43;;;;;;;;;;;18.10;41.40;;;;;;5071590;28;19908;-49
2021/04/15 13:39:29;;;;;;;;;;;18.40;40.90;;;;;;5061089;28;19957;-53
2021/04/15 13:41:56;;;;;;;;;;;19.50;40.80;;;;;;5069346;28;19912;-50
2021/04/15 13:44:41;;;;;;;;;;;19.60;40.90;;;;;;5060786;28;19916;-48
2021/04/15 13:47:25;;;;;;;;;;;18.10;39.30;;;;;;5055845;28;19909;-51
2021/04/15 13:49:51;;;;;;;;;;;17.10;42.00;;;;;;5064429;28;19908;-51
2021/04/15 13:52:26;;;;;;;;;;;16.70;43.60;;;;;;5061537;28;20369;-50
2021/04/15 13:54:52;;;;;;;;;;;15.30;44.80;;;;;;5055030;28;19940;-51
2021/04/15 13:57:19;;;;;;;;;;;14.80;46.60;;;;;;5073156;28;20399;-50
2021/04/15 13:59:46;;;;;;;;;;;14.50;47.20;;;;;;5074819;28;19920;-50
2021/04/15 14:02:18;;;;;;;;;;;14.70;46.90;;;;;;5068534;28;20427;-49
2021/04/15 14:04:53;;;;;;;;;;;15.00;46.50;;;;;;5066972;28;19904;-50
2021/04/15 14:07:32;;;;;;;;;;;14.60;46.00;;;;;;5065742;28;19915;-50
2021/04/15 14:10:04;;;;;;;;;;;15.50;47.40;;;;;;5074039;28;19908;-50
2021/04/15 14:12:49;;;;;;;;;;;15.50;47.10;;;;;;5055818;28;19909;-51
2021/04/15 14:15:18;;;;;;;;;;;15.00;47.10;;;;;;5054050;28;19909;-49
2021/04/15 14:17:43;;;;;;;;;;;14.40;48.60;;;;;;5054609;28;19920;-48
2021/04/15 14:20:29;;;;;;;;;;;14.30;48.30;;;;;;5065374;28;19941;-49
2021/04/15 14:22:55;;;;;;;;;;;14.10;49.40;;;;;;5063174;28;20297;-49
2021/04/15 14:25:25;;;;;;;;;;;14.10;48.80;;;;;;5060899;28;19913;-49
2021/04/15 14:27:51;;;;;;;;;;;15.40;49.40;;;;;;5059588;28;20385;-47
2021/04/15 14:30:18;;;;;;;;;;;15.40;46.50;;;;;;5061681;28;19939;-49
2021/04/15 14:32:44;;;;;;;;;;;15.60;47.10;;;;;;5061611;28;19928;-49
2021/04/15 14:35:11;;;;;;;;;;;15.90;47.40;;;;;;5061636;28;19912;-49